sensor_id;sensor_type;location;lat;lon;timestamp;P1;durP1;ratioP1;P2;durP2;ratioP2
50345;SDS011;36248;37.258;-121.918;2022-09-06T00:01:42;4.37;;;4.37;;
50345;SDS011;36248;37.258;-121.918;2022-09-06T00:04:14;3.92;;;3.92;;
50345;SDS011;36248;37.258;-121.918;2022-09-06T00:06:44;3.76;;;3.76;;
50345;SDS011;36248;37.258;-121.918;2022-09-06T00:09:13;3.63;;;3.63;;
50345;SDS011;36248;37.258;-121.918;2022-09-06T00:11:43;3.63;;;3.63;;
50345;SDS011;36248;37.258;-121.918;2022-09-06T00:14:13;3.69;;;3.69;;
50345;SDS011;36248;37.258;-121.918;2022-09-06T00:16:42;3.79;;;3.79;;
50345;SDS011;36248;37.258;-121.918;2022-09-06T00:19:15;4.59;;;4.59;;
50345;SDS011;36248;37.258;-121.918;2022-09-06T00:21:44;4.94;;;4.94;;
50345;SDS011;36248;37.258;-121.918;2022-09-06T00:24:14;5.20;;;5.20;;
50345;SDS011;36248;37.258;-121.918;2022-09-06T00:26:44;5.17;;;5.17;;
50345;SDS011;36248;37.258;-121.918;2022-09-06T00:29:13;5.14;;;5.14;;
50345;SDS011;36248;37.258;-121.918;2022-09-06T00:31:44;5.37;;;5.37;;
50345;SDS011;36248;37.258;-121.918;2022-09-06T00:34:16;5.15;;;5.14;;
50345;SDS011;36248;37.258;-121.918;2022-09-06T00:36:45;4.73;;;4.73;;
50345;SDS011;36248;37.258;-121.918;2022-09-06T00:39:14;4.83;;;4.83;;
50345;SDS011;36248;37.258;-121.918;2022-09-06T00:41:44;5.19;;;5.19;;
50345;SDS011;36248;37.258;-121.918;2022-09-06T00:44:14;4.66;;;4.66;;
50345;SDS011;36248;37.258;-121.918;2022-09-06T00:46:44;4.50;;;4.50;;
50345;SDS011;36248;37.258;-121.918;2022-09-06T00:49:18;4.40;;;4.40;;
50345;SDS011;36248;37.258;-121.918;2022-09-06T00:51:54;4.42;;;4.42;;
50345;SDS011;36248;37.258;-121.918;2022-09-06T00:54:27;4.69;;;4.69;;
50345;SDS011;36248;37.258;-121.918;2022-09-06T00:56:56;4.65;;;4.65;;
50345;SDS011;36248;37.258;-121.918;2022-09-06T00:59:28;4.20;;;4.20;;
50345;SDS011;36248;37.258;-121.918;2022-09-06T01:01:59;4.52;;;4.52;;
50345;SDS011;36248;37.258;-121.918;2022-09-06T01:04:32;4.53;;;4.52;;
50345;SDS011;36248;37.258;-121.918;2022-09-06T01:07:04;5.20;;;5.02;;
50345;SDS011;36248;37.258;-121.918;2022-09-06T01:09:45;4.74;;;4.72;;
50345;SDS011;36248;37.258;-121.918;2022-09-06T01:12:30;4.30;;;4.27;;
50345;SDS011;36248;37.258;-121.918;2022-09-06T01:15:12;4.63;;;4.63;;
50345;SDS011;36248;37.258;-121.918;2022-09-06T01:17:53;4.83;;;4.83;;
50345;SDS011;36248;37.258;-121.918;2022-09-06T01:20:48;4.34;;;4.34;;
50345;SDS011;36248;37.258;-121.918;2022-09-06T01:23:37;4.65;;;4.65;;
50345;SDS011;36248;37.258;-121.918;2022-09-06T01:27:01;4.54;;;4.54;;
50345;SDS011;36248;37.258;-121.918;2022-09-06T01:30:05;4.72;;;4.72;;
50345;SDS011;36248;37.258;-121.918;2022-09-06T01:32:40;5.14;;;5.14;;
50345;SDS011;36248;37.258;-121.918;2022-09-06T01:35:20;4.61;;;4.61;;
50345;SDS011;36248;37.258;-121.918;2022-09-06T01:37:57;4.72;;;4.72;;
50345;SDS011;36248;37.258;-121.918;2022-09-06T01:40:28;4.63;;;4.63;;
50345;SDS011;36248;37.258;-121.918;2022-09-06T01:43:01;4.70;;;4.70;;
50345;SDS011;36248;37.258;-121.918;2022-09-06T01:45:37;4.64;;;4.64;;
50345;SDS011;36248;37.258;-121.918;2022-09-06T01:48:16;4.42;;;4.42;;
50345;SDS011;36248;37.258;-121.918;2022-09-06T01:51:04;4.31;;;4.31;;
50345;SDS011;36248;37.258;-121.918;2022-09-06T01:53:54;4.09;;;4.09;;
50345;SDS011;36248;37.258;-121.918;2022-09-06T01:56:37;3.90;;;3.90;;
50345;SDS011;36248;37.258;-121.918;2022-09-06T01:59:18;4.09;;;4.09;;
50345;SDS011;36248;37.258;-121.918;2022-09-06T02:02:04;4.00;;;4.00;;
50345;SDS011;36248;37.258;-121.918;2022-09-06T02:04:40;4.21;;;4.21;;
50345;SDS011;36248;37.258;-121.918;2022-09-06T02:07:15;4.59;;;4.59;;
50345;SDS011;36248;37.258;-121.918;2022-09-06T02:09:50;4.39;;;4.39;;
50345;SDS011;36248;37.258;-121.918;2022-09-06T02:12:22;4.31;;;4.31;;
50345;SDS011;36248;37.258;-121.918;2022-09-06T02:14:55;4.38;;;4.38;;
50345;SDS011;36248;37.258;-121.918;2022-09-06T02:17:30;4.40;;;4.40;;
50345;SDS011;36248;37.258;-121.918;2022-09-06T02:20:06;3.94;;;3.94;;
50345;SDS011;36248;37.258;-121.918;2022-09-06T02:22:40;4.03;;;4.03;;
50345;SDS011;36248;37.258;-121.918;2022-09-06T02:25:15;4.04;;;4.04;;
50345;SDS011;36248;37.258;-121.918;2022-09-06T02:27:49;4.05;;;4.05;;
50345;SDS011;36248;37.258;-121.918;2022-09-06T02:30:19;4.57;;;4.57;;
50345;SDS011;36248;37.258;-121.918;2022-09-06T02:32:52;4.57;;;4.57;;
50345;SDS011;36248;37.258;-121.918;2022-09-06T02:35:25;4.38;;;4.38;;
50345;SDS011;36248;37.258;-121.918;2022-09-06T02:37:55;4.31;;;4.31;;
50345;SDS011;36248;37.258;-121.918;2022-09-06T02:40:25;4.15;;;4.14;;
50345;SDS011;36248;37.258;-121.918;2022-09-06T02:42:55;4.06;;;4.06;;
50345;SDS011;36248;37.258;-121.918;2022-09-06T02:45:25;4.23;;;4.23;;
50345;SDS011;36248;37.258;-121.918;2022-09-06T02:47:56;4.18;;;4.18;;
50345;SDS011;36248;37.258;-121.918;2022-09-06T02:50:25;4.56;;;4.56;;
50345;SDS011;36248;37.258;-121.918;2022-09-06T02:53:02;5.15;;;5.15;;
50345;SDS011;36248;37.258;-121.918;2022-09-06T02:55:33;5.09;;;5.09;;
50345;SDS011;36248;37.258;-121.918;2022-09-06T02:58:05;5.08;;;5.08;;
50345;SDS011;36248;37.258;-121.918;2022-09-06T03:00:36;4.83;;;4.83;;
50345;SDS011;36248;37.258;-121.918;2022-09-06T03:03:08;5.53;;;5.53;;
50345;SDS011;36248;37.258;-121.918;2022-09-06T03:05:38;5.08;;;5.08;;
50345;SDS011;36248;37.258;-121.918;2022-09-06T03:08:07;4.82;;;4.82;;
50345;SDS011;36248;37.258;-121.918;2022-09-06T03:10:36;4.84;;;4.84;;
50345;SDS011;36248;37.258;-121.918;2022-09-06T03:13:06;4.93;;;4.93;;
50345;SDS011;36248;37.258;-121.918;2022-09-06T03:15:35;5.07;;;5.06;;
50345;SDS011;36248;37.258;-121.918;2022-09-06T03:18:05;5.89;;;5.89;;
50345;SDS011;36248;37.258;-121.918;2022-09-06T03:20:37;5.95;;;5.95;;
50345;SDS011;36248;37.258;-121.918;2022-09-06T03:23:06;5.44;;;5.44;;
50345;SDS011;36248;37.258;-121.918;2022-09-06T03:25:37;5.28;;;5.27;;
50345;SDS011;36248;37.258;-121.918;2022-09-06T03:28:06;5.64;;;5.63;;
50345;SDS011;36248;37.258;-121.918;2022-09-06T03:30:35;6.04;;;6.03;;
50345;SDS011;36248;37.258;-121.918;2022-09-06T03:33:05;6.24;;;6.23;;
50345;SDS011;36248;37.258;-121.918;2022-09-06T03:35:37;5.53;;;5.53;;
50345;SDS011;36248;37.258;-121.918;2022-09-06T03:38:07;5.76;;;5.76;;
50345;SDS011;36248;37.258;-121.918;2022-09-06T03:40:37;5.78;;;5.78;;
50345;SDS011;36248;37.258;-121.918;2022-09-06T03:43:06;6.02;;;6.02;;
50345;SDS011;36248;37.258;-121.918;2022-09-06T03:45:36;5.79;;;5.79;;
50345;SDS011;36248;37.258;-121.918;2022-09-06T03:48:06;5.82;;;5.82;;
50345;SDS011;36248;37.258;-121.918;2022-09-06T03:50:38;6.49;;;6.49;;
50345;SDS011;36248;37.258;-121.918;2022-09-06T03:53:12;7.05;;;7.05;;
50345;SDS011;36248;37.258;-121.918;2022-09-06T03:55:43;6.45;;;6.45;;
50345;SDS011;36248;37.258;-121.918;2022-09-06T03:58:13;6.49;;;6.49;;
50345;SDS011;36248;37.258;-121.918;2022-09-06T04:00:44;6.71;;;6.71;;
50345;SDS011;36248;37.258;-121.918;2022-09-06T04:03:13;6.75;;;6.75;;
50345;SDS011;36248;37.258;-121.918;2022-09-06T04:05:46;6.72;;;6.71;;
50345;SDS011;36248;37.258;-121.918;2022-09-06T04:08:16;6.58;;;6.58;;
50345;SDS011;36248;37.258;-121.918;2022-09-06T04:10:48;6.19;;;6.17;;
50345;SDS011;36248;37.258;-121.918;2022-09-06T04:13:18;5.87;;;5.87;;
50345;SDS011;36248;37.258;-121.918;2022-09-06T04:15:48;5.23;;;5.23;;
50345;SDS011;36248;37.258;-121.918;2022-09-06T04:18:18;5.14;;;5.13;;
50345;SDS011;36248;37.258;-121.918;2022-09-06T04:20:50;5.37;;;5.36;;
50345;SDS011;36248;37.258;-121.918;2022-09-06T04:23:21;4.96;;;4.95;;
50345;SDS011;36248;37.258;-121.918;2022-09-06T04:25:52;5.03;;;5.03;;
50345;SDS011;36248;37.258;-121.918;2022-09-06T04:28:22;5.43;;;5.43;;
50345;SDS011;36248;37.258;-121.918;2022-09-06T04:30:53;5.29;;;5.29;;
50345;SDS011;36248;37.258;-121.918;2022-09-06T04:33:24;5.56;;;5.53;;
50345;SDS011;36248;37.258;-121.918;2022-09-06T04:35:58;5.51;;;5.45;;
50345;SDS011;36248;37.258;-121.918;2022-09-06T04:38:29;6.79;;;6.77;;
50345;SDS011;36248;37.258;-121.918;2022-09-06T04:41:02;6.54;;;6.54;;
50345;SDS011;36248;37.258;-121.918;2022-09-06T04:43:32;6.22;;;6.22;;
50345;SDS011;36248;37.258;-121.918;2022-09-06T04:46:02;5.77;;;5.77;;
50345;SDS011;36248;37.258;-121.918;2022-09-06T04:48:33;5.48;;;5.48;;
50345;SDS011;36248;37.258;-121.918;2022-09-06T04:51:05;5.25;;;5.25;;
50345;SDS011;36248;37.258;-121.918;2022-09-06T04:53:35;5.49;;;5.49;;
50345;SDS011;36248;37.258;-121.918;2022-09-06T04:56:05;5.38;;;5.38;;
50345;SDS011;36248;37.258;-121.918;2022-09-06T04:58:35;5.59;;;5.59;;
50345;SDS011;36248;37.258;-121.918;2022-09-06T05:01:04;5.18;;;5.17;;
50345;SDS011;36248;37.258;-121.918;2022-09-06T05:03:34;5.22;;;5.22;;
50345;SDS011;36248;37.258;-121.918;2022-09-06T05:06:08;5.43;;;5.43;;
50345;SDS011;36248;37.258;-121.918;2022-09-06T05:08:39;5.59;;;5.57;;
50345;SDS011;36248;37.258;-121.918;2022-09-06T05:11:09;5.83;;;5.83;;
50345;SDS011;36248;37.258;-121.918;2022-09-06T05:13:39;5.29;;;5.29;;
50345;SDS011;36248;37.258;-121.918;2022-09-06T05:16:10;5.41;;;5.41;;
50345;SDS011;36248;37.258;-121.918;2022-09-06T05:18:40;5.47;;;5.43;;
50345;SDS011;36248;37.258;-121.918;2022-09-06T05:21:12;5.13;;;5.11;;
50345;SDS011;36248;37.258;-121.918;2022-09-06T05:23:42;4.88;;;4.88;;
50345;SDS011;36248;37.258;-121.918;2022-09-06T05:26:12;4.99;;;4.99;;
50345;SDS011;36248;37.258;-121.918;2022-09-06T05:28:42;5.38;;;5.34;;
50345;SDS011;36248;37.258;-121.918;2022-09-06T05:31:12;5.32;;;5.19;;
50345;SDS011;36248;37.258;-121.918;2022-09-06T05:33:53;5.26;;;5.18;;
50345;SDS011;36248;37.258;-121.918;2022-09-06T05:36:26;5.35;;;5.28;;
50345;SDS011;36248;37.258;-121.918;2022-09-06T05:38:56;5.36;;;5.34;;
50345;SDS011;36248;37.258;-121.918;2022-09-06T05:41:26;5.36;;;5.36;;
50345;SDS011;36248;37.258;-121.918;2022-09-06T05:43:57;5.62;;;5.62;;
50345;SDS011;36248;37.258;-121.918;2022-09-06T05:46:27;5.60;;;5.60;;
50345;SDS011;36248;37.258;-121.918;2022-09-06T05:48:56;5.33;;;5.33;;
50345;SDS011;36248;37.258;-121.918;2022-09-06T05:51:35;4.95;;;4.95;;
50345;SDS011;36248;37.258;-121.918;2022-09-06T05:54:04;5.04;;;5.04;;
50345;SDS011;36248;37.258;-121.918;2022-09-06T05:56:35;4.93;;;4.93;;
50345;SDS011;36248;37.258;-121.918;2022-09-06T05:59:04;5.08;;;5.08;;
50345;SDS011;36248;37.258;-121.918;2022-09-06T06:01:33;4.87;;;4.87;;
50345;SDS011;36248;37.258;-121.918;2022-09-06T06:04:03;5.08;;;5.08;;
50345;SDS011;36248;37.258;-121.918;2022-09-06T06:06:36;4.70;;;4.70;;
50345;SDS011;36248;37.258;-121.918;2022-09-06T06:09:06;5.04;;;5.04;;
50345;SDS011;36248;37.258;-121.918;2022-09-06T06:11:35;5.27;;;5.27;;
50345;SDS011;36248;37.258;-121.918;2022-09-06T06:14:05;4.89;;;4.88;;
50345;SDS011;36248;37.258;-121.918;2022-09-06T06:16:35;4.60;;;4.60;;
50345;SDS011;36248;37.258;-121.918;2022-09-06T06:19:04;4.41;;;4.40;;
50345;SDS011;36248;37.258;-121.918;2022-09-06T06:21:36;4.67;;;4.59;;
50345;SDS011;36248;37.258;-121.918;2022-09-06T06:24:06;4.87;;;4.76;;
50345;SDS011;36248;37.258;-121.918;2022-09-06T06:26:36;4.51;;;4.49;;
50345;SDS011;36248;37.258;-121.918;2022-09-06T06:29:06;4.29;;;4.29;;
50345;SDS011;36248;37.258;-121.918;2022-09-06T06:31:37;4.40;;;4.40;;
50345;SDS011;36248;37.258;-121.918;2022-09-06T06:34:07;4.28;;;4.28;;
50345;SDS011;36248;37.258;-121.918;2022-09-06T06:36:39;4.41;;;4.41;;
50345;SDS011;36248;37.258;-121.918;2022-09-06T06:39:09;4.50;;;4.50;;
50345;SDS011;36248;37.258;-121.918;2022-09-06T06:41:38;4.83;;;4.83;;
50345;SDS011;36248;37.258;-121.918;2022-09-06T06:44:08;4.64;;;4.64;;
50345;SDS011;36248;37.258;-121.918;2022-09-06T06:46:37;4.71;;;4.71;;
50345;SDS011;36248;37.258;-121.918;2022-09-06T06:49:07;4.51;;;4.51;;
50345;SDS011;36248;37.258;-121.918;2022-09-06T06:51:36;4.43;;;4.43;;
50345;SDS011;36248;37.258;-121.918;2022-09-06T06:54:08;4.24;;;4.24;;
50345;SDS011;36248;37.258;-121.918;2022-09-06T06:56:38;4.27;;;4.27;;
50345;SDS011;36248;37.258;-121.918;2022-09-06T06:59:09;4.19;;;4.19;;
50345;SDS011;36248;37.258;-121.918;2022-09-06T07:01:39;4.22;;;4.22;;
50345;SDS011;36248;37.258;-121.918;2022-09-06T07:04:09;4.36;;;4.36;;
50345;SDS011;36248;37.258;-121.918;2022-09-06T07:06:48;4.31;;;4.31;;
50345;SDS011;36248;37.258;-121.918;2022-09-06T07:09:19;4.33;;;4.31;;
50345;SDS011;36248;37.258;-121.918;2022-09-06T07:11:49;4.57;;;4.56;;
50345;SDS011;36248;37.258;-121.918;2022-09-06T07:14:19;4.68;;;4.68;;
50345;SDS011;36248;37.258;-121.918;2022-09-06T07:16:48;4.71;;;4.71;;
50345;SDS011;36248;37.258;-121.918;2022-09-06T07:19:23;4.43;;;4.43;;
50345;SDS011;36248;37.258;-121.918;2022-09-06T07:21:55;4.31;;;4.31;;
50345;SDS011;36248;37.258;-121.918;2022-09-06T07:24:24;4.35;;;4.35;;
50345;SDS011;36248;37.258;-121.918;2022-09-06T07:26:54;4.19;;;4.18;;
50345;SDS011;36248;37.258;-121.918;2022-09-06T07:29:24;4.13;;;4.13;;
50345;SDS011;36248;37.258;-121.918;2022-09-06T07:31:53;3.90;;;3.90;;
50345;SDS011;36248;37.258;-121.918;2022-09-06T07:34:22;3.81;;;3.80;;
50345;SDS011;36248;37.258;-121.918;2022-09-06T07:36:52;4.11;;;4.08;;
50345;SDS011;36248;37.258;-121.918;2022-09-06T07:39:25;3.93;;;3.91;;
50345;SDS011;36248;37.258;-121.918;2022-09-06T07:41:57;4.13;;;4.13;;
50345;SDS011;36248;37.258;-121.918;2022-09-06T07:44:27;3.87;;;3.87;;
50345;SDS011;36248;37.258;-121.918;2022-09-06T07:46:57;3.92;;;3.92;;
50345;SDS011;36248;37.258;-121.918;2022-09-06T07:49:27;3.93;;;3.91;;
50345;SDS011;36248;37.258;-121.918;2022-09-06T07:52:00;4.11;;;4.11;;
50345;SDS011;36248;37.258;-121.918;2022-09-06T07:54:30;3.70;;;3.70;;
50345;SDS011;36248;37.258;-121.918;2022-09-06T07:56:58;3.81;;;3.81;;
50345;SDS011;36248;37.258;-121.918;2022-09-06T07:59:28;3.54;;;3.54;;
50345;SDS011;36248;37.258;-121.918;2022-09-06T08:01:58;3.47;;;3.47;;
50345;SDS011;36248;37.258;-121.918;2022-09-06T08:04:27;3.39;;;3.38;;
50345;SDS011;36248;37.258;-121.918;2022-09-06T08:07:00;3.14;;;3.14;;
50345;SDS011;36248;37.258;-121.918;2022-09-06T08:09:29;3.05;;;3.05;;
50345;SDS011;36248;37.258;-121.918;2022-09-06T08:11:59;3.00;;;3.00;;
50345;SDS011;36248;37.258;-121.918;2022-09-06T08:14:31;2.96;;;2.96;;
50345;SDS011;36248;37.258;-121.918;2022-09-06T08:17:01;2.77;;;2.77;;
50345;SDS011;36248;37.258;-121.918;2022-09-06T08:19:32;2.59;;;2.59;;
50345;SDS011;36248;37.258;-121.918;2022-09-06T08:22:05;2.46;;;2.46;;
50345;SDS011;36248;37.258;-121.918;2022-09-06T08:24:35;2.64;;;2.64;;
50345;SDS011;36248;37.258;-121.918;2022-09-06T08:27:04;2.60;;;2.60;;
50345;SDS011;36248;37.258;-121.918;2022-09-06T08:29:35;2.51;;;2.51;;
50345;SDS011;36248;37.258;-121.918;2022-09-06T08:32:05;2.41;;;2.41;;
50345;SDS011;36248;37.258;-121.918;2022-09-06T08:34:35;2.31;;;2.31;;
50345;SDS011;36248;37.258;-121.918;2022-09-06T08:37:10;2.34;;;2.34;;
50345;SDS011;36248;37.258;-121.918;2022-09-06T08:39:40;2.22;;;2.22;;
50345;SDS011;36248;37.258;-121.918;2022-09-06T08:42:10;2.68;;;2.66;;
50345;SDS011;36248;37.258;-121.918;2022-09-06T08:44:40;2.45;;;2.42;;
50345;SDS011;36248;37.258;-121.918;2022-09-06T08:47:14;2.48;;;2.46;;
50345;SDS011;36248;37.258;-121.918;2022-09-06T08:49:45;2.59;;;2.59;;
50345;SDS011;36248;37.258;-121.918;2022-09-06T08:55:24;7.36;;;7.35;;
50345;SDS011;36248;37.258;-121.918;2022-09-06T08:58:05;7.33;;;7.27;;
50345;SDS011;36248;37.258;-121.918;2022-09-06T09:00:46;3.54;;;3.54;;
50345;SDS011;36248;37.258;-121.918;2022-09-06T09:03:23;2.75;;;2.75;;
50345;SDS011;36248;37.258;-121.918;2022-09-06T09:05:58;2.62;;;2.62;;
50345;SDS011;36248;37.258;-121.918;2022-09-06T09:08:31;2.57;;;2.57;;
50345;SDS011;36248;37.258;-121.918;2022-09-06T09:11:13;2.25;;;2.25;;
50345;SDS011;36248;37.258;-121.918;2022-09-06T09:13:49;2.33;;;2.33;;
50345;SDS011;36248;37.258;-121.918;2022-09-06T09:16:21;2.45;;;2.45;;
50345;SDS011;36248;37.258;-121.918;2022-09-06T09:18:52;2.11;;;2.11;;
50345;SDS011;36248;37.258;-121.918;2022-09-06T09:21:25;2.10;;;2.10;;
50345;SDS011;36248;37.258;-121.918;2022-09-06T09:23:56;2.30;;;2.29;;
50345;SDS011;36248;37.258;-121.918;2022-09-06T09:26:33;2.37;;;2.37;;
50345;SDS011;36248;37.258;-121.918;2022-09-06T09:29:08;2.26;;;2.26;;
50345;SDS011;36248;37.258;-121.918;2022-09-06T09:31:39;2.28;;;2.28;;
50345;SDS011;36248;37.258;-121.918;2022-09-06T09:34:11;2.43;;;2.43;;
50345;SDS011;36248;37.258;-121.918;2022-09-06T09:36:42;2.46;;;2.46;;
50345;SDS011;36248;37.258;-121.918;2022-09-06T09:39:12;2.29;;;2.29;;
50345;SDS011;36248;37.258;-121.918;2022-09-06T09:41:44;2.44;;;2.44;;
50345;SDS011;36248;37.258;-121.918;2022-09-06T09:44:19;2.50;;;2.50;;
50345;SDS011;36248;37.258;-121.918;2022-09-06T09:46:52;2.29;;;2.29;;
50345;SDS011;36248;37.258;-121.918;2022-09-06T09:49:27;2.45;;;2.45;;
50345;SDS011;36248;37.258;-121.918;2022-09-06T09:52:05;2.28;;;2.28;;
50345;SDS011;36248;37.258;-121.918;2022-09-06T09:54:37;2.61;;;2.61;;
50345;SDS011;36248;37.258;-121.918;2022-09-06T09:57:12;2.64;;;2.64;;
50345;SDS011;36248;37.258;-121.918;2022-09-06T09:59:46;2.60;;;2.60;;
50345;SDS011;36248;37.258;-121.918;2022-09-06T10:02:21;2.64;;;2.64;;
50345;SDS011;36248;37.258;-121.918;2022-09-06T10:04:58;2.84;;;2.84;;
50345;SDS011;36248;37.258;-121.918;2022-09-06T10:07:30;2.62;;;2.62;;
50345;SDS011;36248;37.258;-121.918;2022-09-06T10:10:03;2.75;;;2.75;;
50345;SDS011;36248;37.258;-121.918;2022-09-06T10:12:36;2.67;;;2.67;;
50345;SDS011;36248;37.258;-121.918;2022-09-06T10:15:07;2.86;;;2.86;;
50345;SDS011;36248;37.258;-121.918;2022-09-06T10:17:46;2.57;;;2.57;;
50345;SDS011;36248;37.258;-121.918;2022-09-06T10:20:17;2.64;;;2.64;;
50345;SDS011;36248;37.258;-121.918;2022-09-06T10:22:49;2.65;;;2.65;;
50345;SDS011;36248;37.258;-121.918;2022-09-06T10:25:34;2.79;;;2.79;;
50345;SDS011;36248;37.258;-121.918;2022-09-06T10:28:15;2.68;;;2.68;;
50345;SDS011;36248;37.258;-121.918;2022-09-06T10:31:05;2.67;;;2.67;;
50345;SDS011;36248;37.258;-121.918;2022-09-06T10:34:06;2.69;;;2.68;;
50345;SDS011;36248;37.258;-121.918;2022-09-06T10:37:00;2.54;;;2.54;;
50345;SDS011;36248;37.258;-121.918;2022-09-06T10:39:39;2.48;;;2.48;;
50345;SDS011;36248;37.258;-121.918;2022-09-06T10:42:20;2.45;;;2.45;;
50345;SDS011;36248;37.258;-121.918;2022-09-06T10:45:02;2.40;;;2.40;;
50345;SDS011;36248;37.258;-121.918;2022-09-06T10:47:49;2.61;;;2.61;;
50345;SDS011;36248;37.258;-121.918;2022-09-06T10:50:28;2.30;;;2.30;;
50345;SDS011;36248;37.258;-121.918;2022-09-06T10:53:06;2.66;;;2.66;;
50345;SDS011;36248;37.258;-121.918;2022-09-06T10:55:40;2.51;;;2.51;;
50345;SDS011;36248;37.258;-121.918;2022-09-06T10:58:17;2.46;;;2.45;;
50345;SDS011;36248;37.258;-121.918;2022-09-06T11:00:54;2.52;;;2.51;;
50345;SDS011;36248;37.258;-121.918;2022-09-06T11:03:25;2.49;;;2.49;;
50345;SDS011;36248;37.258;-121.918;2022-09-06T11:06:01;2.41;;;2.41;;
50345;SDS011;36248;37.258;-121.918;2022-09-06T11:08:37;2.37;;;2.37;;
50345;SDS011;36248;37.258;-121.918;2022-09-06T11:11:14;2.38;;;2.38;;
50345;SDS011;36248;37.258;-121.918;2022-09-06T11:13:48;2.54;;;2.54;;
50345;SDS011;36248;37.258;-121.918;2022-09-06T11:16:21;2.30;;;2.30;;
50345;SDS011;36248;37.258;-121.918;2022-09-06T11:18:53;2.29;;;2.29;;
50345;SDS011;36248;37.258;-121.918;2022-09-06T11:21:42;2.29;;;2.29;;
50345;SDS011;36248;37.258;-121.918;2022-09-06T11:24:29;2.29;;;2.29;;
50345;SDS011;36248;37.258;-121.918;2022-09-06T11:27:10;2.54;;;2.52;;
50345;SDS011;36248;37.258;-121.918;2022-09-06T11:29:47;2.26;;;2.26;;
50345;SDS011;36248;37.258;-121.918;2022-09-06T11:32:29;2.43;;;2.42;;
50345;SDS011;36248;37.258;-121.918;2022-09-06T11:35:02;2.53;;;2.53;;
50345;SDS011;36248;37.258;-121.918;2022-09-06T11:37:36;2.33;;;2.33;;
50345;SDS011;36248;37.258;-121.918;2022-09-06T11:40:15;2.44;;;2.42;;
50345;SDS011;36248;37.258;-121.918;2022-09-06T11:45:46;2.53;;;2.53;;
50345;SDS011;36248;37.258;-121.918;2022-09-06T11:51:36;2.39;;;2.39;;
50345;SDS011;36248;37.258;-121.918;2022-09-06T11:57:08;2.20;;;2.20;;
50345;SDS011;36248;37.258;-121.918;2022-09-06T11:59:51;2.47;;;2.47;;
50345;SDS011;36248;37.258;-121.918;2022-09-06T12:02:30;2.54;;;2.54;;
50345;SDS011;36248;37.258;-121.918;2022-09-06T12:05:15;2.41;;;2.41;;
50345;SDS011;36248;37.258;-121.918;2022-09-06T12:10:55;2.06;;;2.06;;
50345;SDS011;36248;37.258;-121.918;2022-09-06T12:13:32;2.39;;;2.39;;
50345;SDS011;36248;37.258;-121.918;2022-09-06T12:16:17;2.19;;;2.19;;
50345;SDS011;36248;37.258;-121.918;2022-09-06T12:18:54;2.38;;;2.38;;
50345;SDS011;36248;37.258;-121.918;2022-09-06T12:21:36;2.24;;;2.24;;
50345;SDS011;36248;37.258;-121.918;2022-09-06T12:24:49;2.29;;;2.29;;
50345;SDS011;36248;37.258;-121.918;2022-09-06T12:27:15;2.47;;;2.47;;
50345;SDS011;36248;37.258;-121.918;2022-09-06T12:29:51;2.45;;;2.45;;
50345;SDS011;36248;37.258;-121.918;2022-09-06T12:32:24;2.37;;;2.36;;
50345;SDS011;36248;37.258;-121.918;2022-09-06T12:34:56;2.42;;;2.41;;
50345;SDS011;36248;37.258;-121.918;2022-09-06T12:37:31;2.43;;;2.42;;
50345;SDS011;36248;37.258;-121.918;2022-09-06T12:40:05;2.30;;;2.30;;
50345;SDS011;36248;37.258;-121.918;2022-09-06T12:42:36;2.40;;;2.40;;
50345;SDS011;36248;37.258;-121.918;2022-09-06T12:45:06;2.43;;;2.43;;
50345;SDS011;36248;37.258;-121.918;2022-09-06T12:47:37;2.09;;;2.09;;
50345;SDS011;36248;37.258;-121.918;2022-09-06T12:50:09;2.32;;;2.32;;
50345;SDS011;36248;37.258;-121.918;2022-09-06T12:52:44;2.54;;;2.54;;
50345;SDS011;36248;37.258;-121.918;2022-09-06T12:55:19;2.49;;;2.48;;
50345;SDS011;36248;37.258;-121.918;2022-09-06T12:57:51;2.14;;;2.14;;
50345;SDS011;36248;37.258;-121.918;2022-09-06T13:00:23;2.26;;;2.25;;
50345;SDS011;36248;37.258;-121.918;2022-09-06T13:02:56;2.21;;;2.21;;
50345;SDS011;36248;37.258;-121.918;2022-09-06T13:05:33;2.21;;;2.21;;
50345;SDS011;36248;37.258;-121.918;2022-09-06T13:08:09;2.22;;;2.22;;
50345;SDS011;36248;37.258;-121.918;2022-09-06T13:10:46;1.99;;;1.99;;
50345;SDS011;36248;37.258;-121.918;2022-09-06T13:13:17;1.91;;;1.91;;
50345;SDS011;36248;37.258;-121.918;2022-09-06T13:15:50;1.97;;;1.96;;
50345;SDS011;36248;37.258;-121.918;2022-09-06T13:18:22;2.18;;;2.17;;
50345;SDS011;36248;37.258;-121.918;2022-09-06T13:20:59;2.32;;;2.32;;
50345;SDS011;36248;37.258;-121.918;2022-09-06T13:23:38;2.73;;;2.73;;
50345;SDS011;36248;37.258;-121.918;2022-09-06T13:26:11;2.96;;;2.96;;
50345;SDS011;36248;37.258;-121.918;2022-09-06T13:28:42;2.99;;;2.99;;
50345;SDS011;36248;37.258;-121.918;2022-09-06T13:31:11;3.07;;;3.07;;
50345;SDS011;36248;37.258;-121.918;2022-09-06T13:33:53;3.08;;;3.07;;
50345;SDS011;36248;37.258;-121.918;2022-09-06T13:36:25;2.27;;;2.27;;
50345;SDS011;36248;37.258;-121.918;2022-09-06T13:38:57;2.46;;;2.46;;
50345;SDS011;36248;37.258;-121.918;2022-09-06T13:41:35;2.56;;;2.55;;
50345;SDS011;36248;37.258;-121.918;2022-09-06T13:46:57;2.25;;;2.25;;
50345;SDS011;36248;37.258;-121.918;2022-09-06T13:49:27;2.40;;;2.39;;
50345;SDS011;36248;37.258;-121.918;2022-09-06T13:51:57;2.23;;;2.22;;
50345;SDS011;36248;37.258;-121.918;2022-09-06T13:54:29;2.59;;;2.58;;
50345;SDS011;36248;37.258;-121.918;2022-09-06T13:57:03;2.28;;;2.27;;
50345;SDS011;36248;37.258;-121.918;2022-09-06T13:59:34;2.41;;;2.40;;
50345;SDS011;36248;37.258;-121.918;2022-09-06T14:02:04;2.37;;;2.37;;
50345;SDS011;36248;37.258;-121.918;2022-09-06T14:04:35;2.74;;;2.73;;
50345;SDS011;36248;37.258;-121.918;2022-09-06T14:07:05;2.33;;;2.33;;
50345;SDS011;36248;37.258;-121.918;2022-09-06T14:09:34;2.61;;;2.57;;
50345;SDS011;36248;37.258;-121.918;2022-09-06T14:12:07;2.60;;;2.55;;
50345;SDS011;36248;37.258;-121.918;2022-09-06T14:14:37;2.82;;;2.78;;
50345;SDS011;36248;37.258;-121.918;2022-09-06T14:17:06;4.39;;;4.33;;
50345;SDS011;36248;37.258;-121.918;2022-09-06T14:19:36;4.38;;;4.32;;
50345;SDS011;36248;37.258;-121.918;2022-09-06T14:22:06;3.27;;;3.20;;
50345;SDS011;36248;37.258;-121.918;2022-09-06T14:24:35;2.89;;;2.85;;
50345;SDS011;36248;37.258;-121.918;2022-09-06T14:27:04;2.43;;;2.40;;
50345;SDS011;36248;37.258;-121.918;2022-09-06T14:29:36;2.49;;;2.45;;
50345;SDS011;36248;37.258;-121.918;2022-09-06T14:32:06;2.38;;;2.33;;
50345;SDS011;36248;37.258;-121.918;2022-09-06T14:34:36;2.35;;;2.31;;
50345;SDS011;36248;37.258;-121.918;2022-09-06T14:37:06;2.42;;;2.38;;
50345;SDS011;36248;37.258;-121.918;2022-09-06T14:39:35;2.31;;;2.27;;
50345;SDS011;36248;37.258;-121.918;2022-09-06T14:42:07;2.13;;;2.10;;
50345;SDS011;36248;37.258;-121.918;2022-09-06T14:44:36;2.11;;;2.10;;
50345;SDS011;36248;37.258;-121.918;2022-09-06T14:47:06;2.18;;;2.18;;
50345;SDS011;36248;37.258;-121.918;2022-09-06T14:49:36;2.21;;;2.18;;
50345;SDS011;36248;37.258;-121.918;2022-09-06T14:52:06;2.36;;;2.30;;
50345;SDS011;36248;37.258;-121.918;2022-09-06T14:54:36;2.49;;;2.42;;
50345;SDS011;36248;37.258;-121.918;2022-09-06T14:57:08;2.81;;;2.72;;
50345;SDS011;36248;37.258;-121.918;2022-09-06T14:59:37;3.87;;;3.79;;
50345;SDS011;36248;37.258;-121.918;2022-09-06T15:02:07;6.22;;;6.11;;